If you wish to contribute or participate in the discussions about articles you are invited to join SKYbrary as a registered user

 Actions

Gove Airport

From SKYbrary Wiki

YPGV
Airport
ICAO: YPGV – IATA: GOV
Summary
Name Gove Airport
Region Asia and Pacific
Territory Australia AU.gif
Location Nhulunbuy, Northern Territory
Serving Nhulunbuy
Elevation 62.484 m
205 ft
205 ft62.484 m
Coordinates 12° 16' 28.93" S, 136° 49' 34.17" E
Runways
Designator Length Width Surface ROPS
13/31 2208 m7,244.094 ft
45 m147.638 ft
ASP yes/yes


METAR
Observation YPGV 111030Z AUTO 15011KT 5000 // SCT017 BKN041 24/23 Q1012
Station GOVE AIRPORT
Date/Time 11 April 2019 10:30:00
Wind direction 150°
Wind speed 11 kts
Lowest cloud amount scattered clouds
Temperature 24°C
Dew point 23°C
Humidity 94%
QNH 1012 hPa
Weather condition n/a

Gove Airport is on the Gove Peninsula in the Northern Territory of Australia. It services the mining town of Nhulunbuy and several Aboriginal communities including Yirrkala.

Maps

Terrain

Loading map...

Airport Layout

Loading map...


Accidents & Serious Incidents at or in vicinity of YPGV

None on SKYbrary